Time;durP1;ratioP1;P1;durP2;ratioP2;P2;SDS_P1;SDS_P2;PMS_P1;PMS_P2;Temp;Humidity;BMP_temperature;BMP_pressure;BME280_temperature;BME280_humidity;BME280_pressure;Samples;Min_cycle;Max_cycle;Signal;HPM_P1;HPM_P2
2023/12/29 00:01:59;;;;;;;13.50;6.65;;;;;;;18.24;73.79;100609.97;4979388;28;20059;-35
2023/12/29 00:04:27;;;;;;;11.52;6.93;;;;;;;18.22;73.88;100607.50;4964343;28;20085;-35
2023/12/29 00:06:53;;;;;;;16.27;8.60;;;;;;;18.20;74.01;100608.91;4982204;28;20687;-35
2023/12/29 00:09:21;;;;;;;15.07;7.82;;;;;;;18.18;73.91;100605.59;4980328;28;20358;-36
2023/12/29 00:11:47;;;;;;;14.10;8.30;;;;;;;18.16;73.91;100608.63;4983003;28;20038;-35
2023/12/29 00:14:13;;;;;;;16.27;8.60;;;;;;;18.15;74.01;100607.00;4988273;28;20179;-39
2023/12/29 00:16:38;;;;;;;21.10;8.68;;;;;;;18.16;74.25;100611.38;4982023;28;20040;-37
2023/12/29 00:19:03;;;;;;;15.48;8.32;;;;;;;18.15;73.96;100601.50;4978518;28;20550;-35
2023/12/29 00:21:29;;;;;;;18.63;8.23;;;;;;;18.14;73.88;100610.84;4980287;28;20787;-38
2023/12/29 00:23:55;;;;;;;14.20;8.07;;;;;;;18.15;74.05;100600.69;4964703;28;20038;-37
2023/12/29 00:26:21;;;;;;;15.93;7.93;;;;;;;18.13;74.13;100584.50;4963921;28;20502;-38
2023/12/29 00:28:46;;;;;;;18.52;7.80;;;;;;;18.11;74.09;100595.78;4986934;28;20026;-38
2023/12/29 00:31:18;;;;;;;16.45;7.53;;;;;;;18.09;74.20;100584.25;4989912;28;20110;-38
2023/12/29 00:33:43;;;;;;;16.52;7.18;;;;;;;18.09;74.40;100595.22;5009396;28;20072;-38
2023/12/29 00:36:21;;;;;;;16.10;6.32;;;;;;;18.08;74.34;100609.22;5002981;28;20150;-37
2023/12/29 00:38:46;;;;;;;15.52;7.43;;;;;;;18.07;74.51;100591.94;5003176;28;20018;-37
2023/12/29 00:41:11;;;;;;;14.73;7.65;;;;;;;18.06;74.53;100593.06;4983085;28;20029;-36
2023/12/29 00:43:37;;;;;;;15.52;7.95;;;;;;;18.05;74.92;100607.03;4991750;28;20080;-37
2023/12/29 00:46:03;;;;;;;12.52;7.10;;;;;;;18.05;74.85;100602.38;4998365;28;20040;-38
2023/12/29 00:48:29;;;;;;;15.80;7.68;;;;;;;18.03;74.88;100598.28;5000817;28;20684;-38
2023/12/29 00:50:54;;;;;;;15.30;7.05;;;;;;;18.00;75.23;100594.19;5001681;28;20052;-38
2023/12/29 00:53:20;;;;;;;14.77;6.47;;;;;;;17.99;75.37;100591.72;4999456;28;20026;-38
2023/12/29 00:55:45;;;;;;;15.50;6.55;;;;;;;17.98;75.21;100593.66;5002517;28;20050;-38
2023/12/29 00:58:10;;;;;;;11.55;5.50;;;;;;;18.00;75.44;100604.31;4999777;28;20403;-38
2023/12/29 01:00:36;;;;;;;16.30;6.45;;;;;;;17.96;75.69;100588.47;5009292;28;20156;-38
2023/12/29 01:03:01;;;;;;;11.55;5.13;;;;;;;17.96;75.76;100595.84;4988685;28;20198;-38
2023/12/29 01:05:27;;;;;;;13.52;5.65;;;;;;;17.96;75.70;100591.19;4984621;28;20038;-38
2023/12/29 01:07:53;;;;;;;14.48;5.47;;;;;;;17.97;75.78;100583.78;4999560;28;20487;-38
2023/12/29 01:10:18;;;;;;;11.88;4.85;;;;;;;17.95;75.76;100591.47;5013395;28;20026;-37
2023/12/29 01:12:43;;;;;;;12.70;4.68;;;;;;;17.94;76.15;100578.84;4994037;28;20029;-34
2023/12/29 01:15:09;;;;;;;10.48;4.68;;;;;;;17.93;75.98;100575.28;5000475;28;20041;-35
2023/12/29 01:17:34;;;;;;;10.88;4.28;;;;;;;17.92;76.11;100572.81;4996747;28;20501;-35
2023/12/29 01:20:00;;;;;;;12.13;4.03;;;;;;;17.92;76.09;100570.88;5005193;28;20022;-41
2023/12/29 01:22:25;;;;;;;16.27;4.22;;;;;;;17.92;76.20;100589.25;5002453;28;20109;-39
2023/12/29 01:24:51;;;;;;;9.93;3.60;;;;;;;17.91;76.34;100591.16;4994675;28;20072;-37
2023/12/29 01:27:16;;;;;;;8.90;3.72;;;;;;;17.89;76.38;100584.34;5002413;28;20178;-36
2023/12/29 01:29:41;;;;;;;9.35;3.53;;;;;;;17.89;76.35;100589.81;5002557;28;20033;-36
2023/12/29 01:32:07;;;;;;;8.25;3.30;;;;;;;17.88;76.27;100585.44;4979591;28;20073;-35
2023/12/29 01:34:34;;;;;;;13.52;3.72;;;;;;;17.87;76.28;100584.63;4980682;28;20347;-35
2023/12/29 01:36:59;;;;;;;8.77;3.10;;;;;;;17.87;76.29;100581.06;5000608;28;20138;-35
2023/12/29 01:39:25;;;;;;;13.82;3.38;;;;;;;17.86;76.70;100566.53;4998356;28;20394;-38
2023/12/29 01:41:50;;;;;;;10.57;3.55;;;;;;;17.87;76.43;100573.66;4999787;28;20374;-37
2023/12/29 01:44:20;;;;;;;9.48;3.53;;;;;;;17.84;76.51;100576.97;5001603;28;20423;-37
2023/12/29 01:46:48;;;;;;;9.65;2.97;;;;;;;17.83;77.02;100569.84;4983606;28;20113;-37
2023/12/29 01:49:17;;;;;;;6.93;2.75;;;;;;;17.81;76.83;100583.81;5014242;28;20053;-38
2023/12/29 01:51:43;;;;;;;8.90;3.38;;;;;;;17.81;76.91;100589.31;4984031;28;20164;-36
2023/12/29 01:54:09;;;;;;;9.48;3.00;;;;;;;17.81;77.18;100596.72;4992301;28;20045;-35
2023/12/29 01:56:34;;;;;;;7.10;2.80;;;;;;;17.80;77.10;100584.09;4987879;28;20037;-35
2023/12/29 01:59:00;;;;;;;7.38;2.83;;;;;;;17.80;77.15;100592.31;4997805;28;20021;-35
2023/12/29 02:01:26;;;;;;;8.00;2.97;;;;;;;17.79;77.10;100583.31;4983684;28;20125;-36
2023/12/29 02:03:51;;;;;;;7.53;2.80;;;;;;;17.78;77.45;100575.34;5000731;28;20138;-35
2023/12/29 02:06:18;;;;;;;7.55;2.50;;;;;;;17.77;77.41;100588.22;4982427;28;20093;-37
2023/12/29 02:08:43;;;;;;;8.30;3.05;;;;;;;17.79;77.36;100590.69;5000876;28;20030;-37
2023/12/29 02:11:09;;;;;;;10.40;2.47;;;;;;;17.79;77.65;100590.69;5003042;28;20061;-37
2023/12/29 02:13:34;;;;;;;10.30;2.80;;;;;;;17.77;77.19;100603.88;4986325;28;20033;-38
2023/12/29 02:16:07;;;;;;;8.68;2.80;;;;;;;17.78;77.51;100605.50;5003531;28;20044;-37
2023/12/29 02:18:34;;;;;;;7.43;2.67;;;;;;;17.77;77.50;100601.94;5022534;28;20034;-35
2023/12/29 02:21:02;;;;;;;9.35;2.40;;;;;;;17.75;77.32;100606.88;4987199;28;20518;-35
2023/12/29 02:23:28;;;;;;;7.68;2.50;;;;;;;17.73;77.68;100598.13;5000949;28;20498;-38
2023/12/29 02:25:55;;;;;;;9.10;2.67;;;;;;;17.72;77.74;100603.88;5008344;28;20033;-36
2023/12/29 02:28:25;;;;;;;7.90;2.40;;;;;;;17.70;77.68;100608.84;4985503;28;20483;-35
2023/12/29 02:31:23;;;;;;;9.55;2.60;;;;;;;17.70;77.69;100604.16;4969260;28;20026;-37
2023/12/29 02:33:51;;;;;;;9.05;2.60;;;;;;;17.69;77.87;100597.03;4933758;28;20034;-35
2023/12/29 02:36:17;;;;;;;10.10;2.75;;;;;;;17.67;78.11;100590.19;4993439;28;20129;-38
2023/12/29 02:38:43;;;;;;;8.73;2.60;;;;;;;17.69;77.91;100597.03;4973525;28;20033;-38
2023/12/29 02:41:08;;;;;;;6.65;2.42;;;;;;;17.69;77.80;100601.72;4970040;28;20044;-38
2023/12/29 02:43:34;;;;;;;10.40;3.08;;;;;;;17.71;77.83;100614.03;4990325;28;20049;-38
2023/12/29 02:45:59;;;;;;;12.35;3.25;;;;;;;17.68;78.22;100616.50;4998289;28;20026;-36
2023/12/29 02:48:24;;;;;;;12.02;3.40;;;;;;;17.68;78.04;100617.31;4968276;28;20023;-35
2023/12/29 02:50:50;;;;;;;14.35;2.97;;;;;;;17.67;78.19;100623.91;5001520;28;20084;-38
2023/12/29 02:53:16;;;;;;;12.80;3.05;;;;;;;17.65;78.24;100621.44;4987974;28;20515;-36
2023/12/29 02:55:41;;;;;;;10.02;2.92;;;;;;;17.66;78.34;100633.25;4976474;28;20715;-37
2023/12/29 02:58:07;;;;;;;11.23;2.90;;;;;;;17.64;78.34;100624.47;4971476;28;20522;-38
2023/12/29 03:00:33;;;;;;;8.38;2.83;;;;;;;17.63;78.43;100620.91;4995189;28;20030;-38
2023/12/29 03:02:58;;;;;;;11.40;3.33;;;;;;;17.61;78.61;100608.59;4976127;28;20115;-38
2023/12/29 03:05:23;;;;;;;10.35;3.08;;;;;;;17.60;78.65;100613.25;4995655;28;20037;-38
2023/12/29 03:07:49;;;;;;;17.75;3.42;;;;;;;17.61;78.67;100617.63;4975037;28;20028;-37
2023/12/29 03:10:14;;;;;;;20.48;3.78;;;;;;;17.60;78.59;100607.75;4993076;28;20069;-35
2023/12/29 03:12:40;;;;;;;17.02;4.05;;;;;;;17.60;78.77;100602.28;4991229;28;20331;-35
2023/12/29 03:15:05;;;;;;;14.18;3.47;;;;;;;17.58;78.65;100590.78;4998405;28;20029;-37
2023/12/29 03:17:31;;;;;;;22.83;4.50;;;;;;;17.59;78.72;100597.09;4988739;28;20038;-37
2023/12/29 03:19:56;;;;;;;17.13;4.13;;;;;;;17.56;78.72;100579.28;4995120;28;20023;-36
2023/12/29 03:22:21;;;;;;;17.00;3.88;;;;;;;17.57;78.61;100586.41;4994737;28;20088;-38
2023/12/29 03:24:47;;;;;;;15.65;3.72;;;;;;;17.56;78.78;100590.25;4994924;28;20092;-38
2023/12/29 03:27:12;;;;;;;14.15;3.30;;;;;;;17.55;78.99;100588.59;4991528;28;20030;-38
2023/12/29 03:29:37;;;;;;;17.98;4.25;;;;;;;17.52;78.66;100574.63;5000765;28;20109;-37
2023/12/29 03:32:03;;;;;;;18.17;3.70;;;;;;;17.52;78.99;100591.09;4991869;28;20474;-37
2023/12/29 03:34:29;;;;;;;23.13;4.63;;;;;;;17.53;78.84;100588.06;4995622;28;20025;-37
2023/12/29 03:36:54;;;;;;;18.80;4.47;;;;;;;17.52;79.18;100586.41;4990420;28;20034;-35
2023/12/29 03:39:19;;;;;;;17.42;4.35;;;;;;;17.53;79.10;100579.84;4994026;28;20118;-38
2023/12/29 03:41:45;;;;;;;14.45;3.35;;;;;;;17.52;79.20;100594.63;4962269;28;20364;-35
2023/12/29 03:44:10;;;;;;;20.00;4.28;;;;;;;17.53;79.30;100565.31;4994255;28;20033;-37
2023/12/29 03:46:36;;;;;;;12.43;3.60;;;;;;;17.54;79.38;100575.19;4976271;28;20057;-38
2023/12/29 03:49:02;;;;;;;15.90;3.78;;;;;;;17.54;79.32;100569.72;4996142;28;20072;-38
2023/12/29 03:51:28;;;;;;;14.18;3.60;;;;;;;17.55;79.23;100577.66;4993806;28;20027;-38
2023/12/29 03:53:53;;;;;;;14.90;3.67;;;;;;;17.54;79.54;100577.94;4997994;28;20048;-35
2023/12/29 03:56:19;;;;;;;16.98;3.92;;;;;;;17.54;79.23;100556.00;4974963;28;20609;-34
2023/12/29 03:58:45;;;;;;;17.73;4.10;;;;;;;17.55;79.28;100568.63;4997396;28;20225;-37
2023/12/29 04:01:14;;;;;;;19.40;4.47;;;;;;;17.57;79.08;100569.13;4998758;28;20036;-37
2023/12/29 04:03:40;;;;;;;22.38;4.75;;;;;;;17.58;79.15;100573.53;4971929;28;20089;-35
2023/12/29 04:06:07;;;;;;;18.98;4.40;;;;;;;17.57;78.90;100571.88;4990673;28;20034;-35
2023/12/29 04:08:36;;;;;;;21.83;4.43;;;;;;;17.58;78.81;100574.34;4998709;28;20478;-35
2023/12/29 04:11:01;;;;;;;18.90;4.13;;;;;;;17.58;78.85;100579.00;4999697;28;20030;-35
2023/12/29 04:13:27;;;;;;;24.60;4.38;;;;;;;17.58;78.53;100581.75;4993157;28;20033;-38
2023/12/29 04:15:53;;;;;;;19.10;4.60;;;;;;;17.56;78.81;100583.94;4971088;28;20038;-36
2023/12/29 04:18:20;;;;;;;17.05;3.63;;;;;;;17.56;78.92;100587.50;4994411;28;20406;-35
2023/12/29 04:20:46;;;;;;;20.85;4.35;;;;;;;17.55;78.67;100593.28;4990537;28;20022;-37
2023/12/29 04:23:12;;;;;;;18.67;4.38;;;;;;;17.55;78.77;100574.91;4991874;28;20064;-36
2023/12/29 04:25:37;;;;;;;18.02;4.13;;;;;;;17.54;78.93;100572.44;4993834;28;20025;-36
2023/12/29 04:28:03;;;;;;;17.45;4.32;;;;;;;17.52;78.99;100577.38;4991157;28;20079;-38
2023/12/29 04:30:28;;;;;;;19.88;3.75;;;;;;;17.51;79.05;100584.78;4973908;28;20459;-38
2023/12/29 04:32:54;;;;;;;19.13;4.20;;;;;;;17.52;79.01;100578.19;4980430;28;20054;-35
2023/12/29 04:35:19;;;;;;;19.25;4.05;;;;;;;17.53;79.14;100566.13;4982811;28;20028;-38
2023/12/29 04:37:45;;;;;;;18.95;4.45;;;;;;;17.57;78.98;100580.94;4982363;28;20030;-36
2023/12/29 04:40:11;;;;;;;20.48;4.82;;;;;;;17.61;78.68;100573.78;4979922;28;20506;-36
2023/12/29 04:42:37;;;;;;;17.65;4.10;;;;;;;17.67;79.00;100563.63;4986836;28;20030;-35
2023/12/29 04:45:03;;;;;;;19.10;4.47;;;;;;;17.73;78.59;100556.19;4965299;28;20125;-35
2023/12/29 04:47:29;;;;;;;15.23;4.13;;;;;;;17.80;78.72;100564.91;4983150;28;20249;-35
2023/12/29 04:49:54;;;;;;;15.02;4.43;;;;;;;17.84;78.41;100560.53;4974636;28;20021;-37
2023/12/29 04:52:19;;;;;;;17.35;4.60;;;;;;;17.94;78.40;100559.66;4982262;28;20026;-38
2023/12/29 04:54:45;;;;;;;18.92;4.40;;;;;;;18.00;78.47;100569.53;4983875;28;20098;-37
2023/12/29 04:57:10;;;;;;;16.45;4.57;;;;;;;18.07;78.16;100566.44;4984217;28;20355;-38
2023/12/29 04:59:35;;;;;;;19.35;4.78;;;;;;;18.13;78.19;100565.31;4979346;28;20033;-36
2023/12/29 05:02:01;;;;;;;16.80;4.90;;;;;;;18.21;77.86;100583.06;4981944;28;20058;-36
2023/12/29 05:04:26;;;;;;;17.98;4.47;;;;;;;18.28;77.62;100584.41;4982443;28;20030;-36
2023/12/29 05:06:51;;;;;;;16.35;4.45;;;;;;;18.36;77.51;100580.25;4986888;28;20019;-35
2023/12/29 05:09:17;;;;;;;17.35;5.15;;;;;;;18.45;77.36;100572.22;4980605;28;20089;-35
2023/12/29 05:11:42;;;;;;;18.30;4.95;;;;;;;18.53;77.34;100592.75;4978659;28;20072;-35
2023/12/29 05:14:08;;;;;;;20.40;4.78;;;;;;;18.64;76.82;100577.84;4982037;28;20491;-34
2023/12/29 05:16:33;;;;;;;15.88;4.32;;;;;;;18.74;76.94;100564.00;4982307;28;20411;-38
2023/12/29 05:18:59;;;;;;;14.77;4.63;;;;;;;18.86;76.88;100560.06;4976514;28;20030;-37
2023/12/29 05:21:25;;;;;;;21.52;5.07;;;;;;;18.96;76.46;100550.94;4965890;28;20133;-36
2023/12/29 05:23:51;;;;;;;17.60;5.28;;;;;;;19.06;76.13;100559.88;4986578;28;20110;-39
2023/12/29 05:26:16;;;;;;;15.82;4.75;;;;;;;19.15;76.02;100567.50;4980318;28;20361;-38
2023/12/29 05:28:42;;;;;;;19.17;4.95;;;;;;;19.24;75.57;100568.50;4979785;28;20505;-35
2023/12/29 05:31:07;;;;;;;17.58;5.15;;;;;;;19.32;75.37;100567.84;4967704;28;20112;-35
2023/12/29 05:33:33;;;;;;;17.63;4.60;;;;;;;19.38;75.20;100580.41;4964063;28;20460;-36
2023/12/29 05:35:59;;;;;;;21.20;5.60;;;;;;;19.48;75.00;100575.94;4981216;28;20174;-39
2023/12/29 05:38:24;;;;;;;17.75;5.40;;;;;;;19.53;74.68;100567.63;4978831;28;20483;-38
2023/12/29 05:40:50;;;;;;;18.60;4.88;;;;;;;19.58;74.66;100564.78;4969117;28;20041;-36
2023/12/29 05:43:16;;;;;;;16.08;4.78;;;;;;;19.60;74.33;100557.06;4982213;28;20033;-36
2023/12/29 05:45:41;;;;;;;20.05;4.55;;;;;;;19.61;74.49;100557.88;4982072;28;20034;-38
2023/12/29 05:48:07;;;;;;;16.13;4.50;;;;;;;19.57;74.02;100552.19;4981189;28;20021;-35
2023/12/29 05:50:32;;;;;;;17.77;4.88;;;;;;;19.53;73.98;100542.88;4950561;28;20034;-37
2023/12/29 05:52:58;;;;;;;19.30;4.72;;;;;;;19.47;74.15;100546.78;4982810;28;20100;-38
2023/12/29 05:55:23;;;;;;;18.02;4.35;;;;;;;19.40;74.20;100553.47;4986978;28;20038;-36
2023/12/29 05:57:48;;;;;;;16.40;4.25;;;;;;;19.35;74.27;100553.53;4984235;28;20026;-37
2023/12/29 06:00:14;;;;;;;12.52;3.90;;;;;;;19.32;74.25;100545.06;4984130;28;20052;-38
2023/12/29 06:02:42;;;;;;;17.05;3.88;;;;;;;19.26;74.46;100540.75;4984192;28;20497;-36
2023/12/29 06:05:10;;;;;;;14.23;3.83;;;;;;;19.22;74.51;100540.50;4982608;28;20257;-38
2023/12/29 06:07:35;;;;;;;15.68;4.00;;;;;;;19.17;74.65;100546.88;4988665;28;20496;-38
2023/12/29 06:10:01;;;;;;;18.70;4.43;;;;;;;19.13;74.57;100532.09;4986501;28;20109;-35
2023/12/29 06:12:26;;;;;;;13.27;3.78;;;;;;;19.09;74.66;100542.00;4964530;28;20033;-35
2023/12/29 06:14:52;;;;;;;14.45;3.97;;;;;;;19.06;74.73;100539.84;4987979;28;20022;-37
2023/12/29 06:17:17;;;;;;;13.85;3.67;;;;;;;19.02;74.53;100538.81;4991299;28;20022;-38
2023/12/29 06:19:42;;;;;;;12.90;3.90;;;;;;;18.99;74.89;100544.88;4984861;28;20037;-38
2023/12/29 06:22:11;;;;;;;13.48;3.78;;;;;;;18.97;74.86;100527.84;4990267;28;20029;-36
2023/12/29 06:24:37;;;;;;;14.90;4.00;;;;;;;18.94;75.09;100522.97;4985088;28;20391;-38
2023/12/29 06:27:03;;;;;;;12.15;3.53;;;;;;;18.91;75.27;100533.41;4986812;28;20343;-38
2023/12/29 06:29:28;;;;;;;13.57;3.50;;;;;;;18.88;75.23;100516.66;4968031;28;20041;-38
2023/12/29 06:31:54;;;;;;;12.55;3.63;;;;;;;18.86;75.25;100530.69;4989035;28;20577;-36
2023/12/29 06:34:19;;;;;;;12.40;3.30;;;;;;;18.85;75.35;100531.78;4996307;28;20060;-35
2023/12/29 06:36:44;;;;;;;14.48;3.30;;;;;;;18.84;75.15;100538.38;5006480;28;20603;-38
2023/12/29 06:39:10;;;;;;;12.35;3.08;;;;;;;18.82;75.03;100537.88;5006900;28;20030;-37
2023/12/29 06:41:35;;;;;;;11.57;3.42;;;;;;;18.80;75.45;100540.09;5009469;28;20417;-37
2023/12/29 06:44:01;;;;;;;12.27;3.42;;;;;;;18.79;75.39;100526.66;5003393;28;20487;-38
2023/12/29 06:46:26;;;;;;;11.30;3.20;;;;;;;18.76;75.38;100550.00;4987350;28;20029;-36
2023/12/29 06:48:51;;;;;;;9.45;3.20;;;;;;;18.73;75.54;100545.09;5002264;28;20383;-36
2023/12/29 06:51:18;;;;;;;9.88;2.72;;;;;;;18.71;75.24;100537.16;5002506;28;20033;-38
2023/12/29 06:53:43;;;;;;;10.77;3.40;;;;;;;18.66;75.62;100539.91;5003605;28;20434;-35
2023/12/29 06:56:13;;;;;;;15.73;3.42;;;;;;;18.66;75.62;100536.38;5002945;28;20033;-35
2023/12/29 06:58:38;;;;;;;8.35;2.95;;;;;;;18.63;75.69;100537.78;5001414;28;20460;-35
2023/12/29 07:01:04;;;;;;;12.48;3.20;;;;;;;18.61;75.46;100531.75;5002432;28;20112;-36
2023/12/29 07:03:29;;;;;;;10.40;3.47;;;;;;;18.60;75.46;100535.59;4999900;28;20426;-38
2023/12/29 07:05:55;;;;;;;10.10;2.85;;;;;;;18.56;75.83;100540.03;5020728;28;20030;-35
2023/12/29 07:08:20;;;;;;;11.52;2.92;;;;;;;18.53;75.70;100535.94;4994796;28;20124;-38
2023/12/29 07:10:49;;;;;;;8.98;2.95;;;;;;;18.51;75.99;100543.63;5005137;28;20057;-38
2023/12/29 07:13:15;;;;;;;12.65;2.83;;;;;;;18.49;75.86;100542.28;5002917;28;20026;-35
2023/12/29 07:15:40;;;;;;;8.68;2.60;;;;;;;18.47;75.78;100549.97;4988125;28;20486;-36
2023/12/29 07:18:06;;;;;;;10.23;2.83;;;;;;;18.42;76.28;100537.94;4995411;28;20113;-38
2023/12/29 07:20:31;;;;;;;15.70;3.17;;;;;;;18.41;76.39;100527.25;5001971;28;20434;-38
2023/12/29 07:22:57;;;;;;;19.50;3.10;;;;;;;18.39;76.22;100529.47;5001926;28;20080;-35
2023/12/29 07:25:22;;;;;;;11.50;3.42;;;;;;;18.38;76.41;100525.91;5004277;28;20162;-35
2023/12/29 07:27:48;;;;;;;13.13;3.22;;;;;;;18.36;76.66;100519.88;5003473;28;20026;-38
2023/12/29 07:30:14;;;;;;;10.30;3.28;;;;;;;18.34;76.51;100526.75;5004256;28;20037;-36
2023/12/29 07:32:39;;;;;;;10.23;2.70;;;;;;;18.33;76.83;100533.34;4995780;28;20638;-38
2023/12/29 07:35:05;;;;;;;10.25;2.67;;;;;;;18.32;76.73;100528.97;4996706;28;20033;-37
2023/12/29 07:37:30;;;;;;;8.07;2.40;;;;;;;18.30;76.66;100534.75;4994608;28;20129;-38
2023/12/29 07:39:56;;;;;;;9.43;2.30;;;;;;;18.27;76.73;100530.66;4995010;28;20022;-38
2023/12/29 07:42:21;;;;;;;10.55;2.90;;;;;;;18.25;77.04;100541.09;4996512;28;20040;-34
2023/12/29 07:44:47;;;;;;;11.40;3.30;;;;;;;18.23;76.83;100537.81;5001263;28;20057;-36
2023/12/29 07:47:12;;;;;;;8.95;2.63;;;;;;;18.20;77.14;100532.91;4991960;28;20117;-38
2023/12/29 07:49:37;;;;;;;8.65;2.30;;;;;;;18.18;77.05;100537.03;5001938;28;20036;-36
2023/12/29 07:52:03;;;;;;;9.75;2.33;;;;;;;18.18;77.21;100537.84;4978621;28;20053;-34
2023/12/29 07:54:28;;;;;;;13.23;2.33;;;;;;;18.17;77.19;100516.19;5000325;28;20030;-35
2023/12/29 07:56:54;;;;;;;7.45;2.63;;;;;;;18.17;77.13;100535.41;4998337;28;20640;-37
2023/12/29 07:59:20;;;;;;;8.90;2.30;;;;;;;18.14;77.36;100546.94;4997610;28;20051;-36
2023/12/29 08:01:45;;;;;;;6.07;2.30;;;;;;;18.12;77.46;100547.22;4962272;28;20460;-37
2023/12/29 08:04:10;;;;;;;6.53;2.28;;;;;;;18.12;77.55;100552.69;4995406;28;20116;-36
2023/12/29 08:06:39;;;;;;;8.55;2.15;;;;;;;18.10;77.48;100550.25;4990569;28;20259;-38
2023/12/29 08:09:04;;;;;;;8.27;2.53;;;;;;;18.08;77.68;100560.66;4998347;28;20113;-36
2023/12/29 08:11:29;;;;;;;8.10;2.67;;;;;;;18.06;77.69;100548.34;4990577;28;20096;-35
2023/12/29 08:13:55;;;;;;;8.25;2.67;;;;;;;18.05;77.79;100555.78;4995062;28;20452;-37
2023/12/29 08:16:20;;;;;;;9.15;2.70;;;;;;;18.02;77.93;100548.09;4992569;28;20039;-35
2023/12/29 08:18:47;;;;;;;8.05;1.95;;;;;;;18.02;78.16;100561.00;4992863;28;20085;-35
2023/12/29 08:21:21;;;;;;;7.88;2.25;;;;;;;18.00;77.95;100555.81;4994083;28;20446;-35
2023/12/29 08:23:47;;;;;;;;;;;;;;;17.99;78.16;100567.88;4994925;28;20026;-38
2023/12/29 08:26:12;;;;;;;6.53;2.50;;;;;;;18.00;78.13;100571.41;4988133;28;19985;-38
2023/12/29 08:28:38;;;;;;;6.10;1.88;;;;;;;17.97;78.13;100564.59;4980430;28;20025;-37
2023/12/29 08:31:03;;;;;;;8.35;2.08;;;;;;;17.96;77.94;100561.03;4991374;28;20679;-38
2023/12/29 08:33:29;;;;;;;8.18;1.95;;;;;;;17.95;78.33;100567.63;5006215;28;20037;-38
2023/12/29 08:35:59;;;;;;;8.82;2.13;;;;;;;17.93;78.46;100572.53;5000969;28;20177;-37
2023/12/29 08:38:24;;;;;;;4.38;1.70;;;;;;;17.91;78.56;100571.16;4999918;28;20073;-38
2023/12/29 08:40:49;;;;;;;9.00;2.10;;;;;;;17.90;78.67;100569.53;5000394;28;20025;-38
2023/12/29 08:43:17;;;;;;;6.85;1.90;;;;;;;17.89;78.66;100556.91;5004021;28;20193;-38
2023/12/29 08:45:42;;;;;;;5.18;1.75;;;;;;;17.88;78.71;100563.50;4994635;28;20033;-38
2023/12/29 08:48:07;;;;;;;6.32;1.85;;;;;;;17.85;79.15;100573.13;5004704;28;20026;-38
2023/12/29 08:50:33;;;;;;;6.75;1.90;;;;;;;17.86;78.89;100585.72;5003862;28;20028;-37
2023/12/29 08:52:58;;;;;;;7.03;1.73;;;;;;;17.87;78.81;100584.63;5000160;28;20062;-36
2023/12/29 08:55:24;;;;;;;4.53;1.48;;;;;;;17.86;78.95;100585.72;5001287;28;20486;-35
2023/12/29 08:57:49;;;;;;;5.05;1.70;;;;;;;17.86;79.02;100593.94;4999464;28;20100;-36
2023/12/29 09:00:14;;;;;;;6.82;1.90;;;;;;;17.85;79.04;100589.56;4986710;28;20033;-36
2023/12/29 09:02:40;;;;;;;7.80;1.98;;;;;;;17.81;79.10;100580.28;4998947;28;20026;-37
2023/12/29 09:05:07;;;;;;;5.13;2.05;;;;;;;17.81;79.35;100592.03;5018239;28;20117;-38
2023/12/29 09:07:33;;;;;;;6.95;1.65;;;;;;;17.81;79.26;100596.72;5001943;28;20207;-38
2023/12/29 09:09:59;;;;;;;6.63;2.10;;;;;;;17.80;79.40;100590.44;5002909;28;20545;-39
2023/12/29 09:12:24;;;;;;;7.28;1.83;;;;;;;17.80;79.47;100595.91;5002171;28;20034;-38
2023/12/29 09:14:49;;;;;;;5.82;2.13;;;;;;;17.81;79.27;100588.50;5010262;28;20108;-35
2023/12/29 09:17:15;;;;;;;4.70;1.83;;;;;;;17.80;79.45;100595.91;5002153;28;20029;-38
2023/12/29 09:19:40;;;;;;;10.10;2.40;;;;;;;17.81;79.43;100592.03;4989907;28;20428;-40
2023/12/29 09:22:06;;;;;;;5.20;2.05;;;;;;;17.84;80.01;100600.81;5001975;28;20061;-40
2023/12/29 09:24:31;;;;;;;12.80;2.05;;;;;;;17.87;80.39;100601.06;5003760;28;20030;-38
2023/12/29 09:26:56;;;;;;;8.57;2.03;;;;;;;17.91;80.32;100598.59;5000563;28;20019;-38
2023/12/29 09:29:22;;;;;;;8.75;2.05;;;;;;;17.94;80.84;100593.41;5001693;28;20107;-39
2023/12/29 09:31:47;;;;;;;7.22;1.98;;;;;;;17.99;80.63;100603.53;4997325;28;20102;-37
2023/12/29 09:34:13;;;;;;;7.85;2.00;;;;;;;18.05;80.41;100594.16;5001988;28;20111;-39
2023/12/29 09:36:38;;;;;;;7.40;1.65;;;;;;;18.08;80.59;100604.56;5000518;28;20040;-38
2023/12/29 09:39:03;;;;;;;5.82;1.70;;;;;;;18.14;80.36;100615.50;5002792;28;20546;-37
2023/12/29 09:41:31;;;;;;;7.25;1.60;;;;;;;18.18;80.26;100622.06;5000848;28;20647;-38
2023/12/29 09:43:58;;;;;;;6.82;1.95;;;;;;;18.21;80.01;100626.97;4985955;28;20110;-38
2023/12/29 09:46:23;;;;;;;8.57;2.40;;;;;;;18.23;79.97;100639.31;5001507;28;20170;-41
2023/12/29 09:48:52;;;;;;;8.95;2.10;;;;;;;18.26;79.92;100633.25;4982878;28;20041;-38
2023/12/29 09:51:22;;;;;;;6.78;1.90;;;;;;;18.31;80.00;100623.34;4996889;28;20070;-39
2023/12/29 09:53:47;;;;;;;10.00;2.10;;;;;;;18.33;80.05;100641.19;4998584;28;20182;-39
2023/12/29 09:56:14;;;;;;;6.78;2.15;;;;;;;18.34;80.60;100645.53;4985051;28;20486;-39
2023/12/29 09:58:40;;;;;;;5.43;1.80;;;;;;;18.35;80.49;100644.44;5018796;28;20032;-38
2023/12/29 10:01:06;;;;;;;8.90;2.10;;;;;;;18.40;80.62;100655.38;5002663;28;20056;-38
2023/12/29 10:03:32;;;;;;;12.40;1.85;;;;;;;18.46;80.80;100653.44;5000510;28;20121;-38
2023/12/29 10:06:00;;;;;;;8.55;2.10;;;;;;;18.51;80.66;100647.09;5002244;28;20433;-39
2023/12/29 10:08:27;;;;;;;10.35;2.20;;;;;;;18.56;80.67;100645.13;4986686;28;20048;-37
2023/12/29 10:10:55;;;;;;;8.00;2.30;;;;;;;18.64;80.62;100637.38;5002488;28;20018;-39
2023/12/29 10:13:20;;;;;;;8.20;2.15;;;;;;;18.71;80.59;100638.72;4997446;28;20458;-38
2023/12/29 10:15:53;;;;;;;6.55;1.85;;;;;;;18.79;80.28;100647.47;4974043;28;20037;-38
2023/12/29 10:18:26;;;;;;;6.60;2.00;;;;;;;18.84;80.18;100641.91;4984400;28;20564;-38
2023/12/29 10:20:59;;;;;;;7.20;2.10;;;;;;;18.91;80.21;100656.16;4998161;28;20038;-37
2023/12/29 10:23:42;;;;;;;9.95;2.25;;;;;;;18.96;79.82;100658.88;4984821;28;20037;-37
2023/12/29 10:26:10;;;;;;;8.52;2.28;;;;;;;19.01;79.66;100656.06;4996292;28;20467;-37
2023/12/29 10:28:36;;;;;;;6.85;2.20;;;;;;;19.04;79.68;100665.66;5001972;28;20032;-41
2023/12/29 10:31:01;;;;;;;10.30;2.40;;;;;;;19.05;79.67;100662.63;4999891;28;20029;-38
2023/12/29 10:33:29;;;;;;;10.15;2.53;;;;;;;19.09;79.53;100671.09;5000478;28;20054;-39
2023/12/29 10:36:06;;;;;;;12.18;3.00;;;;;;;19.11;79.23;100670.84;5003081;28;20034;-39
2023/12/29 10:38:32;;;;;;;13.55;3.00;;;;;;;19.13;79.15;100676.84;5004220;28;20036;-39
2023/12/29 10:41:14;;;;;;;9.20;2.60;;;;;;;19.15;79.27;100664.44;5013162;28;20043;-40
2023/12/29 10:43:41;;;;;;;7.50;2.70;;;;;;;19.16;78.96;100676.28;5004081;28;20026;-38
2023/12/29 10:46:10;;;;;;;13.00;3.28;;;;;;;19.19;78.60;100683.94;5019707;28;20026;-38
2023/12/29 10:48:36;;;;;;;11.50;3.45;;;;;;;19.18;78.78;100674.88;5002207;28;20060;-39
2023/12/29 10:51:03;;;;;;;11.65;2.70;;;;;;;19.19;78.68;100684.75;4991711;28;20103;-39
2023/12/29 10:53:32;;;;;;;7.07;2.50;;;;;;;19.21;78.56;100687.22;5009354;28;20096;-39
2023/12/29 10:55:58;;;;;;;10.15;2.70;;;;;;;19.21;78.51;100677.06;5005709;28;20483;-37
2023/12/29 10:58:29;;;;;;;10.80;3.03;;;;;;;19.23;78.23;100693.25;4984257;28;20124;-38
2023/12/29 11:01:04;;;;;;;13.27;3.35;;;;;;;19.23;78.30;100688.56;5011343;28;20103;-39
2023/12/29 11:06:04;;;;;;;14.68;2.85;;;;;;;19.26;77.93;100683.59;5103484;27;20121;-37
2023/12/29 11:08:35;;;;;;;12.23;3.10;;;;;;;19.27;77.73;100683.31;5094128;28;20057;-37
2023/12/29 11:12:37;;;;;;;9.88;2.78;;;;;;;19.28;77.57;100682.22;5092261;27;20627;-38
2023/12/29 11:15:08;;;;;;;16.95;3.20;;;;;;;19.28;77.05;100682.22;5102364;28;20408;-37
2023/12/29 11:17:35;;;;;;;12.25;3.15;;;;;;;19.29;77.08;100681.09;5097259;28;20032;-38
2023/12/29 11:20:05;;;;;;;10.23;3.10;;;;;;;19.30;76.92;100684.66;5082062;28;20280;-38